createdAt,value
2023-05-13T00:00:18.329Z,100905.75
2023-05-13T00:03:21.959Z,100908.63
2023-05-13T00:06:25.105Z,100905.91
2023-05-13T00:09:28.492Z,100899.09
2023-05-13T00:12:31.573Z,100899.09
2023-05-13T00:15:35.012Z,100897.66
2023-05-13T00:18:38.081Z,100911.75
2023-05-13T00:21:41.559Z,100904.59
2023-05-13T00:24:44.914Z,100911.81
2023-05-13T00:27:48.204Z,100908.25
2023-05-13T00:30:51.346Z,100911.97
2023-05-13T00:33:55.311Z,100914.78
2023-05-13T00:36:58.374Z,100908.47
2023-05-13T00:40:02.528Z,100910.25
2023-05-13T00:43:06.389Z,100913.88
2023-05-13T00:46:10.077Z,100906.97
2023-05-13T00:49:13.348Z,100911.28
2023-05-13T00:52:16.715Z,100910.56
2023-05-13T00:55:19.678Z,100908.88
2023-05-13T00:58:23.246Z,100917.72
2023-05-13T01:01:42.327Z,100918.75
2023-05-13T01:05:14.749Z,100922.41
2023-05-13T01:08:36.428Z,100920.59
2023-05-13T01:11:42.441Z,100930.44
2023-05-13T01:14:54.578Z,100929.56
2023-05-13T01:18:21.222Z,100931.41
2023-05-13T01:21:26.880Z,100936.88
2023-05-13T01:24:30.524Z,100939.41
2023-05-13T01:27:33.864Z,100943.16
2023-05-13T01:30:38.635Z,100934.97
2023-05-13T01:33:43.701Z,100936.00
2023-05-13T01:36:49.260Z,100933.47
2023-05-13T01:39:53.014Z,100938.87
2023-05-13T01:42:56.871Z,100938.94
2023-05-13T01:46:01.683Z,100942.69
2023-05-13T01:49:05.107Z,100944.59
2023-05-13T01:52:08.354Z,100933.94
2023-05-13T01:55:11.839Z,100942.84
2023-05-13T01:58:15.588Z,100936.66
2023-05-13T02:01:20.447Z,100940.31
2023-05-13T02:04:26.037Z,100941.19
2023-05-13T02:07:29.310Z,100938.56
2023-05-13T02:10:32.880Z,100942.34
2023-05-13T02:13:36.906Z,100940.62
2023-05-13T02:16:40.640Z,100937.09
2023-05-13T02:19:43.943Z,100940.78
2023-05-13T02:22:47.358Z,100938.06
2023-05-13T02:25:50.602Z,100943.47
2023-05-13T02:28:54.421Z,100948.87
2023-05-13T02:31:57.518Z,100941.66
2023-05-13T02:35:01.975Z,100923.28
2023-05-13T02:38:05.404Z,100943.66
2023-05-13T02:41:09.154Z,100942.84
2023-05-13T02:44:12.412Z,100933.06
2023-05-13T02:47:16.277Z,100941.22
2023-05-13T02:50:20.028Z,100939.50
2023-05-13T02:53:24.488Z,100936.16
2023-05-13T02:56:28.057Z,100937.88
2023-05-13T02:59:32.056Z,100946.09
2023-05-13T03:02:35.521Z,100940.75
2023-05-13T03:05:39.153Z,100947.12
2023-05-13T03:08:42.402Z,100940.91
2023-05-13T03:11:46.009Z,100940.97
2023-05-13T03:14:49.096Z,100947.25
2023-05-13T03:17:53.688Z,100951.63
2023-05-13T03:20:56.814Z,100954.44
2023-05-13T03:24:01.340Z,100942.00
2023-05-13T03:27:05.868Z,100953.62
2023-05-13T03:30:10.070Z,100957.28
2023-05-13T03:33:15.767Z,100963.56
2023-05-13T03:36:19.702Z,100968.97
2023-05-13T03:39:23.045Z,100969.88
2023-05-13T03:42:26.771Z,100962.75
2023-05-13T03:45:31.432Z,100965.50
2023-05-13T03:48:35.645Z,100957.50
2023-05-13T03:51:39.255Z,100970.16
2023-05-13T03:54:43.212Z,100969.19
2023-05-13T03:57:48.454Z,100974.44
2023-05-13T04:00:52.094Z,100973.56
2023-05-13T04:03:55.561Z,100984.31
2023-05-13T04:06:58.681Z,100991.38
2023-05-13T04:10:02.311Z,100986.75
2023-05-13T04:13:06.987Z,100985.06
2023-05-13T04:16:10.558Z,100989.53
2023-05-13T04:19:14.886Z,100995.00
2023-05-13T04:22:18.248Z,100995.75
2023-05-13T04:25:26.113Z,100993.81
2023-05-13T04:28:30.083Z,101003.59
2023-05-13T04:31:33.828Z,101013.37
2023-05-13T04:34:38.623Z,101011.31
2023-05-13T04:37:42.037Z,101016.87
2023-05-13T04:40:45.793Z,101025.97
2023-05-13T04:43:49.593Z,101026.97
2023-05-13T04:46:53.028Z,101022.44
2023-05-13T04:49:56.132Z,101024.28
2023-05-13T04:53:00.255Z,101014.66
2023-05-13T04:56:03.486Z,101021.59
2023-05-13T04:59:08.787Z,101023.25
2023-05-13T05:02:11.575Z,101026.13
2023-05-13T05:05:17.446Z,101031.53
2023-05-13T05:08:21.872Z,101030.63
2023-05-13T05:11:25.500Z,101036.94
2023-05-13T05:14:28.978Z,101040.41
2023-05-13T05:17:32.973Z,101045.69
2023-05-13T05:20:38.405Z,101045.53
2023-05-13T05:23:42.825Z,101042.66
2023-05-13T05:26:47.700Z,101045.59
2023-05-13T05:29:51.802Z,101042.06
2023-05-13T05:32:55.176Z,101044.66
2023-05-13T05:36:00.191Z,101052.31
2023-05-13T05:39:03.748Z,101044.38
2023-05-13T05:42:08.509Z,101048.75
2023-05-13T05:45:12.181Z,101054.22
2023-05-13T05:48:16.101Z,101047.31
2023-05-13T05:51:19.196Z,101043.56
2023-05-13T05:54:22.579Z,101047.09
2023-05-13T05:57:25.698Z,101047.84
2023-05-13T06:00:29.022Z,101058.53
2023-05-13T06:03:32.906Z,101055.19
2023-05-13T06:06:36.946Z,101065.03
2023-05-13T06:09:41.621Z,101059.19
2023-05-13T06:12:45.083Z,101064.37
2023-05-13T06:15:48.726Z,101073.28
2023-05-13T06:18:52.973Z,101068.03
2023-05-13T06:21:56.534Z,101071.63
2023-05-13T06:25:00.432Z,101071.63
2023-05-13T06:28:06.320Z,101072.25
2023-05-13T06:31:09.444Z,101075.53
2023-05-13T06:34:16.806Z,101074.28
2023-05-13T06:37:20.374Z,101081.19
2023-05-13T06:40:24.042Z,101085.38
2023-05-13T06:43:27.575Z,101076.22
2023-05-13T06:46:32.350Z,101082.44
2023-05-13T06:49:35.566Z,101084.75
2023-05-13T06:52:41.208Z,101088.84
2023-05-13T06:55:45.063Z,101078.97
2023-05-13T06:58:49.614Z,101090.91
2023-05-13T07:01:55.243Z,101079.94
2023-05-13T07:04:58.593Z,101080.19
2023-05-13T07:08:06.720Z,101084.25
2023-05-13T07:11:10.270Z,101080.03
2023-05-13T07:14:13.555Z,101085.50
2023-05-13T07:17:17.608Z,101086.16
2023-05-13T07:20:23.014Z,101083.44
2023-05-13T07:23:26.840Z,101092.06
2023-05-13T07:26:30.048Z,101088.09
2023-05-13T07:29:33.864Z,101090.78
2023-05-13T07:32:37.638Z,101089.97
2023-05-13T07:35:42.261Z,101085.75
2023-05-13T07:38:45.457Z,101091.72
2023-05-13T07:41:50.204Z,101098.56
2023-05-13T07:44:53.270Z,101087.31
2023-05-13T07:47:56.991Z,101084.91
2023-05-13T07:51:00.196Z,101100.03
2023-05-13T07:54:03.705Z,101089.38
2023-05-13T07:57:07.075Z,101090.87
2023-05-13T08:00:10.946Z,101097.16
2023-05-13T08:03:17.000Z,101101.56
2023-05-13T08:06:20.504Z,101106.12
2023-05-13T08:09:23.601Z,101104.22
2023-05-13T08:12:26.995Z,101106.59
2023-05-13T08:15:30.122Z,101110.25
2023-05-13T08:18:33.490Z,101098.88
2023-05-13T08:21:36.778Z,101116.06
2023-05-13T08:24:43.347Z,101120.25
2023-05-13T08:27:47.389Z,101123.91
2023-05-13T08:30:50.827Z,101126.62
2023-05-13T08:33:54.379Z,101132.03
2023-05-13T08:36:58.190Z,101130.25
2023-05-13T08:40:04.886Z,101131.38
2023-05-13T08:43:10.579Z,101144.75
2023-05-13T08:46:17.240Z,101141.25
2023-05-13T08:49:21.217Z,101142.09
2023-05-13T08:52:24.477Z,101138.37
2023-05-13T08:55:28.938Z,101141.72
2023-05-13T08:58:32.088Z,101152.13
2023-05-13T09:01:35.872Z,101146.47
2023-05-13T09:04:41.359Z,101145.56
2023-05-13T09:07:44.867Z,101133.41
2023-05-13T09:10:48.193Z,101148.00
2023-05-13T09:14:06.595Z,101134.56
2023-05-13T09:17:09.742Z,101136.88
2023-05-13T09:20:15.346Z,101138.09
2023-05-13T09:23:18.751Z,101131.31
2023-05-13T09:26:31.639Z,101131.19
2023-05-13T09:29:35.746Z,101128.78
2023-05-13T09:32:40.149Z,101140.88
2023-05-13T09:35:48.725Z,101139.72
2023-05-13T09:38:53.462Z,101143.84
2023-05-13T09:41:57.860Z,101138.91
2023-05-13T09:45:06.857Z,101141.81
2023-05-13T09:48:11.515Z,101138.78
2023-05-13T09:51:19.021Z,101141.56
2023-05-13T09:54:21.952Z,101142.09
2023-05-13T09:57:30.295Z,101137.91
2023-05-13T10:00:34.793Z,101144.22
2023-05-13T10:03:39.626Z,101138.00
2023-05-13T10:06:47.307Z,101141.53
2023-05-13T10:09:54.726Z,101138.19
2023-05-13T10:13:20.955Z,101134.19
2023-05-13T10:16:25.665Z,101120.44
2023-05-13T10:19:28.983Z,101128.53
2023-05-13T10:22:34.917Z,101129.59
2023-05-13T10:25:38.759Z,101124.53
2023-05-13T10:28:43.869Z,101128.25
2023-05-13T10:31:48.067Z,101117.19
2023-05-13T10:35:15.098Z,101114.34
2023-05-13T10:38:36.776Z,101122.81
2023-05-13T10:41:52.118Z,101116.97
2023-05-13T10:44:56.610Z,101118.94
2023-05-13T10:48:07.345Z,101115.66
2023-05-13T10:51:14.319Z,101129.34
2023-05-13T10:54:23.033Z,101112.59
2023-05-13T10:57:35.916Z,101117.00
2023-05-13T11:00:45.774Z,101121.84
2023-05-13T11:03:58.401Z,101119.75
2023-05-13T11:07:16.686Z,101132.72
2023-05-13T11:10:32.547Z,101114.25
2023-05-13T11:13:37.915Z,101114.78
2023-05-13T11:16:46.649Z,101110.12
2023-05-13T11:19:51.784Z,101117.16
2023-05-13T11:22:54.828Z,101107.84
2023-05-13T11:26:12.528Z,101111.31
2023-05-13T11:29:27.629Z,101107.03
2023-05-13T11:32:58.990Z,101112.56
2023-05-13T11:36:04.926Z,101115.13
2023-05-13T11:39:14.159Z,101112.16
2023-05-13T11:42:17.584Z,101109.25
2023-05-13T11:45:23.924Z,101106.59
2023-05-13T11:48:27.358Z,101113.81
2023-05-13T11:51:32.156Z,101111.69
2023-05-13T11:54:49.308Z,101102.38
2023-05-13T11:57:53.277Z,101114.91
2023-05-13T12:00:56.524Z,101117.06
2023-05-13T12:04:03.024Z,101118.87
2023-05-13T12:07:06.153Z,101113.19
2023-05-13T12:10:09.734Z,101117.59
2023-05-13T12:13:13.429Z,101122.66
2023-05-13T12:16:17.113Z,101116.31
2023-05-13T12:19:20.261Z,101123.78
2023-05-13T12:22:24.306Z,101107.59
2023-05-13T12:25:36.508Z,101092.41
2023-05-13T12:28:39.832Z,101097.47
2023-05-13T12:32:03.936Z,101106.62
2023-05-13T12:35:14.513Z,101111.16
2023-05-13T12:38:24.177Z,101108.00
2023-05-13T12:41:32.923Z,101118.87
2023-05-13T12:44:36.110Z,101121.59
2023-05-13T12:47:53.090Z,101114.38
2023-05-13T12:50:56.646Z,101114.25
2023-05-13T12:54:00.904Z,101116.59
2023-05-13T12:57:11.639Z,101109.56
2023-05-13T13:00:15.413Z,101112.06
2023-05-13T13:03:20.403Z,101110.12
2023-05-13T13:06:25.079Z,101110.34
2023-05-13T13:09:28.061Z,101108.75
2023-05-13T13:12:31.465Z,101113.56
2023-05-13T13:15:34.607Z,101117.94
2023-05-13T13:18:38.027Z,101104.56
2023-05-13T13:21:42.223Z,101111.78
2023-05-13T13:24:45.508Z,101106.00
2023-05-13T13:27:49.040Z,101110.94
2023-05-13T13:30:52.687Z,101099.94
2023-05-13T13:33:55.889Z,101099.34
2023-05-13T13:36:59.266Z,101099.13
2023-05-13T13:40:02.926Z,101098.91
2023-05-13T13:43:07.274Z,101097.87
2023-05-13T13:46:10.501Z,101097.87
2023-05-13T13:49:23.070Z,101092.41
2023-05-13T13:52:28.752Z,101088.28
2023-05-13T13:55:32.267Z,101092.22
2023-05-13T13:58:35.761Z,101085.00
2023-05-13T14:01:40.452Z,101091.34
2023-05-13T14:04:43.977Z,101097.44
2023-05-13T14:07:49.498Z,101095.91
2023-05-13T14:10:53.101Z,101090.38
2023-05-13T14:13:56.248Z,101090.00
2023-05-13T14:16:59.619Z,101083.91
2023-05-13T14:20:02.770Z,101094.81
2023-05-13T14:23:06.258Z,101099.41
2023-05-13T14:26:10.973Z,101084.16
2023-05-13T14:29:14.994Z,101079.78
2023-05-13T14:32:18.330Z,101074.75
2023-05-13T14:35:22.189Z,101073.84
2023-05-13T14:38:27.249Z,101072.53
2023-05-13T14:41:30.856Z,101065.22
2023-05-13T14:44:33.973Z,101062.09
2023-05-13T14:47:37.565Z,101055.13
2023-05-13T14:50:41.956Z,101051.88
2023-05-13T14:53:45.548Z,101050.94
2023-05-13T14:56:48.671Z,101046.41
2023-05-13T14:59:51.962Z,101044.22
2023-05-13T15:02:55.179Z,101046.81
2023-05-13T15:05:58.720Z,101046.97
2023-05-13T15:09:02.084Z,101044.88
2023-05-13T15:12:05.996Z,101036.81
2023-05-13T15:15:10.207Z,101041.41
2023-05-13T15:18:14.656Z,101044.81
2023-05-13T15:21:18.043Z,101048.59
2023-05-13T15:24:21.701Z,101043.03
2023-05-13T15:27:27.617Z,101044.41
2023-05-13T15:30:32.001Z,101038.09
2023-05-13T15:33:35.079Z,101050.72
2023-05-13T15:36:38.259Z,101036.13
2023-05-13T15:39:41.191Z,101054.72
2023-05-13T15:42:44.392Z,101059.63
2023-05-13T15:45:47.861Z,101058.28
2023-05-13T15:48:51.469Z,101046.06
2023-05-13T15:51:56.212Z,101056.78
2023-05-13T15:55:00.150Z,101052.50
2023-05-13T15:58:03.566Z,101056.97
2023-05-13T16:01:07.253Z,101027.81
2023-05-13T16:04:10.755Z,101063.63
2023-05-13T16:07:13.956Z,101060.31
2023-05-13T16:10:19.078Z,101020.06
2023-05-13T16:13:22.285Z,101057.81
2023-05-13T16:16:26.212Z,101040.91
2023-05-13T16:19:29.559Z,101057.59
2023-05-13T16:22:38.369Z,101057.59
2023-05-13T16:25:43.167Z,101058.56
2023-05-13T16:28:46.511Z,101058.66
2023-05-13T16:31:49.596Z,101064.94
2023-05-13T16:34:53.595Z,101061.66
2023-05-13T16:37:56.765Z,101063.63
2023-05-13T16:41:00.158Z,101054.00
2023-05-13T16:44:03.389Z,101057.69
2023-05-13T16:47:10.985Z,101050.03
2023-05-13T16:50:15.004Z,101033.94
2023-05-13T16:53:18.458Z,101042.66
2023-05-13T16:56:21.705Z,101007.84
2023-05-13T16:59:27.249Z,101027.41
2023-05-13T17:02:30.704Z,101035.78
2023-05-13T17:05:36.630Z,101042.31
2023-05-13T17:08:39.594Z,101021.25
2023-05-13T17:11:43.174Z,101016.00
2023-05-13T17:14:46.604Z,101023.97
2023-05-13T17:17:51.488Z,101035.62
2023-05-13T17:20:55.162Z,101038.44
2023-05-13T17:23:59.284Z,101041.47
2023-05-13T17:27:02.874Z,101044.44
2023-05-13T17:30:07.227Z,101041.16
2023-05-13T17:33:10.604Z,101053.78
2023-05-13T17:36:14.084Z,101014.69
2023-05-13T17:39:17.265Z,101032.34
2023-05-13T17:42:21.920Z,101042.06
2023-05-13T17:45:25.106Z,101040.78
2023-05-13T17:48:28.992Z,101030.13
2023-05-13T17:51:32.505Z,101032.38
2023-05-13T17:54:37.268Z,101021.88
2023-05-13T17:57:40.445Z,101031.78
2023-05-13T18:00:43.970Z,101025.09
2023-05-13T18:03:47.428Z,101043.25
2023-05-13T18:06:51.009Z,101030.72
2023-05-13T18:09:54.611Z,101035.47
2023-05-13T18:12:57.899Z,101044.59
2023-05-13T18:16:01.375Z,101043.13
2023-05-13T18:19:04.614Z,101036.13
2023-05-13T18:22:11.334Z,101033.63
2023-05-13T18:25:14.450Z,101013.53
2023-05-13T18:28:17.723Z,101037.81
2023-05-13T18:31:20.718Z,101040.41
2023-05-13T18:34:25.151Z,101028.00
2023-05-13T18:37:28.319Z,101022.56
2023-05-13T18:40:31.828Z,101017.03
2023-05-13T18:43:35.164Z,101016.53
2023-05-13T18:46:38.682Z,101039.72
2023-05-13T18:49:41.860Z,101042.34
2023-05-13T18:52:46.357Z,101040.50
2023-05-13T18:55:50.231Z,101052.53
2023-05-13T18:58:55.693Z,101055.16
2023-05-13T19:02:01.382Z,101058.03
2023-05-13T19:05:07.669Z,101065.50
2023-05-13T19:08:12.682Z,101029.00
2023-05-13T19:11:18.656Z,101053.53
2023-05-13T19:14:25.076Z,101037.66
2023-05-13T19:17:31.141Z,101068.88
2023-05-13T19:20:35.817Z,101062.25
2023-05-13T19:23:40.946Z,101065.31
2023-05-13T19:26:46.582Z,101061.06
2023-05-13T19:29:53.814Z,101068.50
2023-05-13T19:32:58.838Z,101078.94
2023-05-13T19:36:05.245Z,101081.66
2023-05-13T19:39:10.769Z,101067.13
2023-05-13T19:42:16.396Z,101074.37
2023-05-13T19:45:21.458Z,101063.91
2023-05-13T19:48:28.300Z,101089.03
2023-05-13T19:51:34.161Z,101086.12
2023-05-13T19:54:38.771Z,101085.72
2023-05-13T19:57:43.232Z,101094.78
2023-05-13T20:00:48.498Z,101092.44
2023-05-13T20:03:55.426Z,101088.06
2023-05-13T20:07:00.195Z,101085.63
2023-05-13T20:10:06.312Z,101070.84
2023-05-13T20:13:10.811Z,101080.63
2023-05-13T20:16:16.458Z,101066.34
2023-05-13T20:19:21.992Z,101062.62
2023-05-13T20:22:27.848Z,101070.09
2023-05-13T20:25:32.986Z,101067.59
2023-05-13T20:28:38.589Z,101062.38
2023-05-13T20:31:44.893Z,101068.53
2023-05-13T20:34:51.315Z,101063.75
2023-05-13T20:37:57.384Z,101071.50
2023-05-13T20:41:01.718Z,101073.25
2023-05-13T20:44:07.206Z,101074.06
2023-05-13T20:47:14.265Z,101079.84
2023-05-13T20:50:18.379Z,101071.78
2023-05-13T20:53:23.576Z,101069.31
2023-05-13T20:56:27.416Z,101070.97
2023-05-13T20:59:32.768Z,101036.94
2023-05-13T21:02:36.696Z,101068.97
2023-05-13T21:05:40.242Z,101071.25
2023-05-13T21:08:44.417Z,101070.38
2023-05-13T21:11:48.099Z,101055.41
2023-05-13T21:14:51.425Z,101060.06
2023-05-13T21:17:54.957Z,101072.13
2023-05-13T21:20:58.071Z,101080.34
2023-05-13T21:24:01.512Z,101050.72
2023-05-13T21:27:04.784Z,101080.13
2023-05-13T21:30:08.870Z,101078.56
2023-05-13T21:33:12.792Z,101073.38
2023-05-13T21:36:16.279Z,101059.97
2023-05-13T21:39:19.228Z,101060.91
2023-05-13T21:42:23.294Z,101048.22
2023-05-13T21:45:26.603Z,101028.81
2023-05-13T21:48:30.330Z,101047.25
2023-05-13T21:51:33.394Z,101058.00
2023-05-13T21:54:36.932Z,101056.31
2023-05-13T21:57:41.625Z,101057.84
2023-05-13T22:00:45.316Z,101052.53
2023-05-13T22:03:48.203Z,101042.00
2023-05-13T22:06:52.235Z,101045.66
2023-05-13T22:09:55.342Z,101038.38
2023-05-13T22:12:58.835Z,101046.25
2023-05-13T22:16:01.892Z,101047.81
2023-05-13T22:19:05.387Z,101045.25
2023-05-13T22:22:08.678Z,101026.00
2023-05-13T22:25:12.111Z,101032.72
2023-05-13T22:28:16.304Z,101032.41
2023-05-13T22:31:19.943Z,101037.94
2023-05-13T22:34:24.445Z,101023.87
2023-05-13T22:37:28.860Z,101033.56
2023-05-13T22:40:32.030Z,101030.81
2023-05-13T22:43:35.899Z,101031.09
2023-05-13T22:46:39.626Z,101029.50
2023-05-13T22:49:43.038Z,101028.91
2023-05-13T22:52:46.115Z,101023.81
2023-05-13T22:55:49.502Z,101011.75
2023-05-13T22:58:52.781Z,101033.28
2023-05-13T23:01:56.487Z,101033.56
2023-05-13T23:04:59.643Z,101024.94
2023-05-13T23:08:03.356Z,101033.00
2023-05-13T23:11:06.605Z,101031.06
2023-05-13T23:14:10.090Z,101024.09
2023-05-13T23:17:13.296Z,101017.66
2023-05-13T23:20:17.712Z,101006.87
2023-05-13T23:23:20.911Z,101013.09
2023-05-13T23:26:25.294Z,101009.34
2023-05-13T23:29:28.419Z,101004.97
2023-05-13T23:32:31.792Z,101001.31
2023-05-13T23:35:35.807Z,101004.97
2023-05-13T23:38:39.814Z,101010.06
2023-05-13T23:41:42.891Z,100987.00
2023-05-13T23:44:46.549Z,100991.25
2023-05-13T23:47:50.709Z,100985.13
2023-05-13T23:50:54.540Z,100983.44
2023-05-13T23:53:57.904Z,100981.91
2023-05-13T23:57:01.341Z,100985.50
